| time (UTC) | temp C | wind direction | speed KPH | gust KPH | rain 1hr cm | rain 24hr cm | rain mn cm | humidity % | barometer mb |
| 20260906223415 | 23 | 338 | 8.0 | 11.3 | 0.00 | 0.20 | 0.00 | 37 | 1027.9 |
| 20260906222415 | 23 | 341 | 12.9 | 17.7 | 0.00 | 0.20 | 0.00 | 37 | 1028.0 |
| 20260906221514 | 23 | 352 | 8.0 | 17.7 | 0.00 | 0.20 | 0.00 | 38 | 1028.2 |
| 20260906220516 | 23 | 3 | 3.2 | 11.3 | 0.00 | 0.20 | 0.00 | 37 | 1028.1 |
| 20260906215516 | 23 | 353 | 4.8 | 9.7 | 0.00 | 0.20 | 0.00 | 37 | 1028.1 |
| 20260906214615 | 23 | 50 | 8.0 | 16.1 | 0.00 | 0.20 | 0.00 | 37 | 1028.4 |
| 20260906213618 | 23 | 15 | 6.4 | 14.5 | 0.00 | 0.20 | 0.00 | 36 | 1028.5 |
| 20260906212716 | 23 | 15 | 9.7 | 19.3 | 0.00 | 0.20 | 0.00 | 35 | 1028.4 |
| 20260906211716 | 23 | 343 | 9.7 | 17.7 | 0.00 | 0.20 | 0.00 | 35 | 1028.4 |
| 20260906210816 | 23 | 351 | 8.0 | 12.9 | 0.00 | 0.20 | 0.00 | 34 | 1028.6 |
| 20260906205817 | 23 | 337 | 6.4 | 14.5 | 0.00 | 0.20 | 0.00 | 34 | 1028.5 |
| 20260906204914 | 23 | 331 | 12.9 | 19.3 | 0.00 | 0.20 | 0.00 | 33 | 1028.6 |
| 20260906203916 | 23 | 1 | 8.0 | 14.5 | 0.00 | 0.20 | 0.00 | 33 | 1019.9 |
| 20260906203015 | 25 | 360 | 9.7 | 16.1 | 0.00 | 0.20 | 0.00 | 32 | 1028.9 |
| 20260906202113 | 25 | 4 | 4.8 | 9.7 | 0.00 | 0.20 | 0.00 | 32 | 1028.6 |
| 20260906201114 | 25 | 18 | 8.0 | 16.1 | 0.00 | 0.20 | 0.00 | 30 | 1028.8 |
| 20260906194115 | 28 | 353 | 8.0 | 19.3 | 0.00 | 0.20 | 0.00 | 25 | 1028.5 |
| 20260906193116 | 28 | 19 | 8.0 | 12.9 | 0.00 | 0.20 | 0.00 | 22 | 1028.6 |
| 20260906190116 | 27 | 223 | 0.0 | 3.2 | 0.00 | 0.20 | 0.00 | 16 | 1029.0 |
| 20260906185115 | 27 | 37 | 3.2 | 6.4 | 0.00 | 0.20 | 0.00 | 16 | 1029.4 |
| 20260906184213 | 27 | 118 | 8.0 | 11.3 | 0.00 | 0.20 | 0.00 | 17 | 1029.2 |
| 20260906183215 | 27 | 344 | 4.8 | 6.4 | 0.00 | 0.20 | 0.00 | 17 | 1029.3 |
| 20260906181314 | 28 | 160 | 6.4 | 11.3 | 0.00 | 0.20 | 0.00 | 19 | 1029.9 |
| 20260906180314 | 28 | 132 | 3.2 | 6.4 | 0.00 | 0.20 | 0.00 | 21 | 1030.0 |
| 20260906174315 | 27 | 183 | 3.2 | 6.4 | 0.00 | 0.20 | 0.00 | 23 | 1030.4 |
| 20260906173315 | 27 | 164 | 4.8 | 6.4 | 0.00 | 0.20 | 0.00 | 24 | 1030.5 |
| 20260906172316 | 26 | 180 | 3.2 | 8.0 | 0.00 | 0.20 | 0.00 | 28 | 1030.9 |
| 20260906171315 | 26 | 328 | 3.2 | 6.4 | 0.00 | 0.20 | 0.00 | 29 | 1030.9 |
| 20260906170317 | 26 | 22 | 3.2 | 11.3 | 0.00 | 0.20 | 0.00 | 30 | 1031.1 |
| 20260906165414 | 25 | 336 | 3.2 | 9.7 | 0.00 | 0.20 | 0.00 | 30 | 1031.3 |
| 20260906164416 | 25 | 337 | 3.2 | 6.4 | 0.00 | 0.20 | 0.00 | 32 | 1031.3 |
| 20260906163416 | 23 | 41 | 3.2 | 6.4 | 0.00 | 0.20 | 0.00 | 36 | 1031.5 |
| 20260906162415 | 22 | 95 | 1.6 | 8.0 | 0.00 | 0.20 | 0.00 | 39 | 1031.6 |
| 20260906161414 | 21 | 12 | 0.0 | 1.6 | 0.00 | 0.20 | 0.00 | 43 | 1031.6 |
| 20260906160414 | 21 | 90 | 1.6 | 4.8 | 0.00 | 0.20 | 0.00 | 48 | 1031.7 |
| 20260906155513 | 19 | 112 | 0.0 | 0.0 | 0.00 | 0.20 | 0.00 | 51 | 1031.7 |
| 20260906154532 | 17 | 90 | 0.0 | 0.0 | 0.00 | 0.20 | 0.00 | 56 | 1031.9 |
| 20260906153614 | 16 | 90 | 3.2 | 4.8 | 0.00 | 0.20 | 0.00 | 62 | 1031.7 |
| 20260906152616 | 15 | 67 | 0.0 | 0.0 | 0.00 | 0.20 | 0.00 | 64 | 1032.1 |
| 20260906150715 | 12 | 9 | 0.0 | 1.6 | 0.00 | 0.20 | 0.00 | 78 | 1032.2 |
| 20260906145716 | 11 | 360 | 0.0 | 0.0 | 0.00 | 0.20 | 0.00 | 77 | 1032.2 |
| 20260906144715 | 11 | 360 | 0.0 | 1.6 | 0.00 | 0.20 | 0.00 | 74 | 1032.3 |
| 20260906142913 | 12 | 67 | 0.0 | 0.0 | 0.00 | 0.20 | 0.00 | 69 | 1032.3 |
| 20260906140916 | 12 | 165 | 3.2 | 8.0 | 0.00 | 0.20 | 0.00 | 68 | 1032.4 |
| 20260906135915 | 12 | 179 | 3.2 | 3.2 | 0.00 | 0.20 | 0.00 | 68 | 1032.3 |
| 20260906134915 | 12 | 247 | 0.0 | 0.0 | 0.00 | 0.20 | 0.00 | 68 | 1032.2 |
| 20260906134013 | 12 | 190 | 6.4 | 9.7 | 0.00 | 0.20 | 0.00 | 68 | 1032.3 |
| 20260906133015 | 11 | 206 | 3.2 | 6.4 | 0.00 | 0.20 | 0.00 | 69 | 1032.2 |
| 20260906132013 | 11 | 202 | 6.4 | 11.3 | 0.00 | 0.20 | 0.00 | 71 | 1032.1 |
| 20260906131016 | 11 | 197 | 6.4 | 12.9 | 0.00 | 0.20 | 0.00 | 72 | 1032.3 |
| 20260906130016 | 11 | 196 | 4.8 | 8.0 | 0.00 | 0.20 | 0.00 | 72 | 1032.0 |
| 20260906125015 | 11 | 180 | 4.8 | 6.4 | 0.00 | 0.20 | 0.00 | 72 | 1031.9 |
| 20260906123015 | 11 | 216 | 1.6 | 6.4 | 0.00 | 0.20 | 0.00 | 73 | 1031.8 |
| 20260906122015 | 11 | 247 | 0.0 | 0.0 | 0.00 | 0.20 | 0.00 | 72 | 1031.7 |
| 20260906120114 | 11 | 180 | 0.0 | 0.0 | 0.00 | 0.20 | 0.00 | 71 | 1031.8 |
| 20260906115115 | 11 | 196 | 6.4 | 9.7 | 0.00 | 0.20 | 0.00 | 71 | 1032.1 |
| 20260906113116 | 11 | 199 | 3.2 | 6.4 | 0.00 | 0.20 | 0.00 | 72 | 1032.0 |
| 20260906110114 | 11 | 191 | 6.4 | 12.9 | 0.00 | 0.20 | 0.00 | 73 | 1032.2 |
| 20260906105115 | 11 | 175 | 6.4 | 9.7 | 0.00 | 0.20 | 0.00 | 74 | 1032.1 |
| 20260906102214 | 12 | 202 | 1.6 | 4.8 | 0.00 | 0.20 | 0.00 | 73 | 1032.2 |
| 20260906101214 | 12 | 190 | 3.2 | 6.4 | 0.00 | 0.20 | 0.00 | 73 | 1032.0 |
| 20260906100217 | 12 | 202 | 3.2 | 8.0 | 0.00 | 0.20 | 0.00 | 72 | 1032.1 |
| 20260906095215 | 11 | 181 | 3.2 | 6.4 | 0.00 | 0.20 | 0.00 | 72 | 1032.2 |
| 20260906094215 | 11 | 186 | 6.4 | 12.9 | 0.00 | 0.20 | 0.00 | 73 | 1032.1 |
| 20260906092314 | 12 | 175 | 6.4 | 11.3 | 0.00 | 0.20 | 0.00 | 72 | 1032.3 |
| 20260906091313 | 12 | 195 | 8.0 | 12.9 | 0.00 | 0.20 | 0.00 | 73 | 1032.5 |
| 20260906090315 | 11 | 192 | 8.0 | 12.9 | 0.00 | 0.20 | 0.00 | 73 | 1032.4 |
| 20260906085313 | 11 | 222 | 3.2 | 8.0 | 0.00 | 0.20 | 0.00 | 73 | 1032.4 |
| 20260906084332 | 11 | 159 | 8.0 | 11.3 | 0.00 | 0.20 | 0.00 | 73 | 1032.2 |
| 20260906082314 | 11 | 186 | 6.4 | 9.7 | 0.00 | 0.20 | 0.00 | 75 | 1032.6 |
| 20260906081313 | 11 | 164 | 8.0 | 11.3 | 0.00 | 0.20 | 0.00 | 76 | 1032.7 |
| 20260906075315 | 11 | 203 | 4.8 | 6.4 | 0.00 | 0.20 | 0.00 | 76 | 1032.8 |
| 20260906074317 | 11 | 167 | 3.2 | 6.4 | 0.00 | 0.20 | 0.00 | 77 | 1032.8 |
| 20260906072413 | 11 | 171 | 11.3 | 16.1 | 0.00 | 0.20 | 0.00 | 79 | 1032.8 |
| 20260906071414 | 11 | 159 | 8.0 | 11.3 | 0.00 | 0.20 | 0.00 | 79 | 1033.0 |
| 20260906070414 | 11 | 164 | 8.0 | 12.9 | 0.00 | 0.20 | 0.00 | 79 | 1032.8 |
| 20260906065415 | 11 | 176 | 6.4 | 14.5 | 0.00 | 0.20 | 0.00 | 80 | 1032.9 |
| 20260906064415 | 11 | 150 | 9.7 | 17.7 | 0.00 | 0.20 | 0.00 | 80 | 1032.9 |
| 20260906063513 | 11 | 156 | 6.4 | 11.3 | 0.00 | 0.20 | 0.00 | 80 | 1032.9 |
| 20260906062515 | 11 | 160 | 6.4 | 9.7 | 0.00 | 0.20 | 0.00 | 81 | 1032.9 |
| 20260906061612 | 11 | 166 | 8.0 | 12.9 | 0.00 | 0.20 | 0.00 | 81 | 1033.0 |
| 20260906060613 | 11 | 197 | 1.6 | 4.8 | 0.00 | 0.20 | 0.00 | 83 | 1033.1 |
| 20260906055619 | 11 | 184 | 3.2 | 6.4 | 0.00 | 0.20 | 0.20 | 84 | 1033.0 |
| 20260906054620 | 11 | 204 | 1.6 | 4.8 | 0.00 | 0.20 | 0.20 | 84 | 1033.0 |
| 20260906053637 | 11 | 157 | 6.4 | 8.0 | 0.03 | 0.20 | 0.20 | 85 | 1033.3 |
| 20260906052622 | 12 | 180 | 0.0 | 0.0 | 0.08 | 0.20 | 0.20 | 83 | 1033.4 |
| 20260906051623 | 12 | 202 | 0.0 | 0.0 | 0.08 | 0.20 | 0.20 | 82 | 1033.4 |
| 20260906050622 | 12 | 202 | 0.0 | 0.0 | 0.08 | 0.20 | 0.20 | 81 | 1033.7 |
| 20260906045621 | 12 | 183 | 1.6 | 6.4 | 0.08 | 0.20 | 0.20 | 78 | 1033.7 |
| 20260906044720 | 13 | 165 | 6.4 | 9.7 | 0.08 | 0.20 | 0.20 | 75 | 1033.7 |
| 20260906043722 | 14 | 173 | 4.8 | 9.7 | 0.08 | 0.20 | 0.18 | 70 | 1033.9 |
| 20260906042723 | 14 | 169 | 14.5 | 24.1 | 0.03 | 0.15 | 0.13 | 70 | 1034.0 |
| 20260906041738 | 13 | 184 | 4.8 | 8.0 | 0.00 | 0.13 | 0.13 | 72 | 1033.8 |
| 20260906040721 | 13 | 183 | 14.5 | 19.3 | 0.00 | 0.13 | 0.13 | 73 | 1033.9 |
| 20260906034821 | 13 | 168 | 4.8 | 8.0 | 0.03 | 0.13 | 0.13 | 79 | 1033.8 |
| 20260906033920 | 13 | 172 | 4.8 | 6.4 | 0.03 | 0.13 | 0.13 | 78 | 1033.9 |
| 20260906032921 | 13 | 180 | 3.2 | 4.8 | 0.03 | 0.13 | 0.13 | 75 | 1034.2 |
| 20260906031921 | 13 | 202 | 1.6 | 3.2 | 0.03 | 0.13 | 0.13 | 72 | 1034.0 |
| 20260906030922 | 13 | 195 | 11.3 | 17.7 | 0.03 | 0.13 | 0.13 | 73 | 1034.1 |
| 20260906025921 | 15 | 189 | 4.8 | 8.0 | 0.05 | 0.13 | 0.13 | 66 | 1034.0 |
| 20260906024922 | 13 | 145 | 19.3 | 30.6 | 0.03 | 0.10 | 0.10 | 73 | 1033.0 |
| 20260906023921 | 13 | 247 | 1.6 | 3.2 | 0.03 | 0.10 | 0.10 | 79 | 1032.2 |
| 20260906022920 | 13 | 225 | 0.0 | 0.0 | 0.03 | 0.10 | 0.10 | 79 | 1031.9 |
| 20260906021920 | 13 | 202 | 0.0 | 1.6 | 0.03 | 0.10 | 0.10 | 79 | 1031.9 |
| 20260906020922 | 12 | 180 | 0.0 | 4.8 | 0.03 | 0.10 | 0.10 | 81 | 1031.8 |
| 20260906020019 | 12 | 225 | 0.0 | 1.6 | 0.00 | 0.08 | 0.08 | 82 | 1031.6 |
| 20260906015021 | 13 | 225 | 0.0 | 1.6 | 0.00 | 0.08 | 0.08 | 81 | 1031.5 |
| 20260906014020 | 13 | 180 | 0.0 | 0.0 | 0.00 | 0.08 | 0.08 | 80 | 1031.6 |
| 20260906013039 | 13 | 176 | 1.6 | 6.4 | 0.05 | 0.08 | 0.08 | 81 | 1031.3 |
| 20260906012120 | 13 | 202 | 0.0 | 6.4 | 0.08 | 0.08 | 0.08 | 79 | 1031.6 |
| 20260906011119 | 14 | 202 | 1.6 | 3.2 | 0.08 | 0.08 | 0.08 | 80 | 1031.8 |
| 20260906010122 | 15 | 165 | 3.2 | 6.4 | 0.08 | 0.08 | 0.08 | 76 | 1031.5 |
| 20260906005120 | 15 | 202 | 1.6 | 6.4 | 0.08 | 0.08 | 0.08 | 73 | 1031.6 |
| 20260906004121 | 17 | 360 | 0.0 | 0.0 | 0.08 | 0.08 | 0.08 | 63 | 1031.6 |
| 20260906003121 | 20 | 360 | 0.0 | 0.0 | 0.03 | 0.03 | 0.03 | 45 | 1031.3 |
| 20260906002121 | 20 | 22 | 1.6 | 6.4 | 0.00 | 0.00 | 0.00 | 38 | 1031.1 |
| 20260906001136 | 21 | 5 | 1.6 | 3.2 | 0.00 | 0.00 | 0.00 | 36 | 1030.8 |
| 20260906000235 | 21 | 50 | 0.0 | 3.2 | 0.00 | 0.00 | 0.00 | 33 | 1030.6 |
| 20260905235323 | 21 | 69 | 1.6 | 4.8 | 0.00 | 0.00 | 0.00 | 33 | 1030.4 |
| 20260905233320 | 22 | 90 | 0.0 | 3.2 | 0.00 | 0.00 | 0.00 | 31 | 1030.4 |
| 20260905231321 | 22 | 90 | 1.6 | 8.0 | 0.00 | 0.00 | 0.00 | 32 | 1030.5 |
| 20260905230320 | 22 | 350 | 4.8 | 9.7 | 0.00 | 0.00 | 0.00 | 30 | 1030.3 |
| 20260905225320 | 22 | 21 | 4.8 | 11.3 | 0.00 | 0.00 | 0.00 | 30 | 1030.3 |
| 20260905224320 | 23 | 336 | 3.2 | 9.7 | 0.00 | 0.00 | 0.00 | 29 | 1030.0 |